KESN/ESN METAR and TAF weather

Enter ICAO airport designator
Station Type Date Time Source
KESN METAR 2022/01/19 20:50 UTC NOAA

KESN 192050Z 18014G17KT 10SM CLR 13/M03 A3004


Station Type Date Time Source
KESN Decoded METAR 2022/01/19 20:50 UTC NOAA

Easton / Newman Field, MD, United States (KESN) 38-48N 076-04W
Jan 19, 2022 - 03:50 PM EST / 2022.01.19 2050 UTC
Wind: from the S (180 degrees) at 16 MPH (14 KT) gusting to 20 MPH (17 KT):0
Visibility: 10 mile(s):0
Sky conditions: clear
Temperature: 55 F (13 C)
Dew Point: 26 F (-3 C)
Relative Humidity: 32%
Pressure (altimeter): 30.04 in. Hg (1017 hPa)
ob: KESN 192050Z 18014G17KT 10SM CLR 13/M03 A3004
cycle: 21

Station Type Date Time Source
KESN TAF UTC NOAA

Error!

Example: see airport list